Terminal Aerodrome Forecast
Issued by NWS Wilmington, OH

Current Version | Previous Version | Graphics & Text | Print | Product List | Glossary On
Versions: 1 2 3 4 5 6 7 8 9 10 11 12 13 14 15 16 17 18 19 20 21 22 23 24 25 26
000
FTUS41 KILN 282300
TAFCVG
TAF
KCVG 282331Z 2900/3006 VRB03KT P6SM BKN060
      TEMPO 2900/2901 -SHRA
     FM290300 VRB03KT P6SM SCT060
     FM291400 34006KT P6SM SCT050
     FM300000 VRB03KT P6SM SKC=

USA.gov is the U.S. government's official web portal to all federal, state and local government web resources and services.